Time;durP1;ratioP1;P1;durP2;ratioP2;P2;SDS_P1;SDS_P2;PMS_P1;PMS_P2;Temp;Humidity;BMP_temperature;BMP_pressure;BME280_temperature;BME280_humidity;BME280_pressure;Samples;Min_cycle;Max_cycle;Signal;HPM_P1;HPM_P2
2022/01/03 01:48:11;;;;;;;3.78;0.70;;;;;;;;;;6215108;23;20035;-95
2022/01/03 01:50:42;;;;;;;5.00;0.43;;;;;;;;;;6214157;23;20064;-95
2022/01/03 01:53:23;;;;;;;3.80;0.93;;;;;;;;;;6210144;23;20039;-94
2022/01/03 01:56:08;;;;;;;6.00;1.35;;;;;;;;;;6213371;23;20009;-95
2022/01/03 01:58:36;;;;;;;2.75;1.10;;;;;;;;;;6214418;23;20005;-93
2022/01/03 02:01:20;;;;;;;5.25;1.45;;;;;;;;;;6213308;23;19997;-95
2022/01/03 02:03:59;;;;;;;3.88;1.48;;;;;;;;;;6214264;23;20024;-93
2022/01/03 02:06:48;;;;;;;8.38;1.70;;;;;;;;;;6212279;23;20013;-94
2022/01/03 02:09:20;;;;;;;9.02;1.77;;;;;;;;;;6212910;23;20032;-93
2022/01/03 02:12:02;;;;;;;7.30;1.88;;;;;;;;;;6211442;23;20080;-93
2022/01/03 02:14:44;;;;;;;11.05;1.85;;;;;;;;;;6211674;23;20081;-93
2022/01/03 02:17:18;;;;;;;11.75;2.90;;;;;;;;;;6212839;23;20040;-93
2022/01/03 02:20:05;;;;;;;10.32;2.47;;;;;;;;;;6212821;23;20032;-93
2022/01/03 02:22:38;;;;;;;14.82;2.88;;;;;;;;;;6212700;23;20032;-93
2022/01/03 02:25:20;;;;;;;9.93;2.58;;;;;;;;;;6211243;23;20016;-93
2022/01/03 02:28:00;;;;;;;10.98;2.22;;;;;;;;;;6211440;23;20021;-94
2022/01/03 02:30:37;;;;;;;9.52;2.45;;;;;;;;;;6212623;23;20009;-94
2022/01/03 02:33:07;;;;;;;16.80;2.83;;;;;;;;;;6212535;23;20009;-93
2022/01/03 02:35:48;;;;;;;17.23;4.13;;;;;;;;;;6211591;23;20009;-93
2022/01/03 02:38:29;;;;;;;12.43;2.80;;;;;;;;;;6190711;23;20015;-93
2022/01/03 02:40:57;;;;;;;19.83;2.83;;;;;;;;;;6212765;23;20013;-93
2022/01/03 02:43:37;;;;;;;13.05;2.85;;;;;;;;;;6212719;23;20020;-93
2022/01/03 02:46:09;;;;;;;15.20;2.38;;;;;;;;;;6206537;23;20017;-94
2022/01/03 02:48:50;;;;;;;20.13;3.47;;;;;;;;;;6181150;23;20060;-94
2022/01/03 02:51:30;;;;;;;18.50;2.85;;;;;;;;;;6181630;23;20002;-93
2022/01/03 02:54:06;;;;;;;14.90;2.58;;;;;;;;;;6182973;23;20069;-93
2022/01/03 02:56:49;;;;;;;23.58;3.67;;;;;;;;;;6182557;23;20002;-94
2022/01/03 02:59:19;;;;;;;21.85;2.75;;;;;;;;;;6183585;23;20013;-96
2022/01/03 03:02:00;;;;;;;17.80;3.00;;;;;;;;;;6183075;23;20005;-93
2022/01/03 03:04:55;;;;;;;14.98;2.30;;;;;;;;;;6206292;23;20009;-95
2022/01/03 03:07:24;;;;;;;17.30;3.03;;;;;;;;;;6184565;23;20013;-95
2022/01/03 03:09:52;;;;;;;32.42;3.33;;;;;;;;;;6184497;23;20109;-94
2022/01/03 03:12:20;;;;;;;20.02;3.22;;;;;;;;;;6184554;23;20010;-94
2022/01/03 03:15:00;;;;;;;23.00;3.30;;;;;;;;;;6183388;23;20009;-94
2022/01/03 03:17:28;;;;;;;23.25;3.75;;;;;;;;;;6184563;23;20036;-94
2022/01/03 03:20:06;;;;;;;27.40;3.53;;;;;;;;;;6184530;23;20010;-94
2022/01/03 03:22:35;;;;;;;25.55;4.50;;;;;;;;;;6184363;23;20028;-94
2022/01/03 03:25:08;;;;;;;35.60;4.03;;;;;;;;;;6184468;23;20055;-94
2022/01/03 03:27:42;;;;;;;28.30;3.85;;;;;;;;;;6184485;23;20012;-93
2022/01/03 03:30:17;;;;;;;18.27;3.25;;;;;;;;;;6184473;23;20009;-93
2022/01/03 03:32:44;;;;;;;21.23;3.63;;;;;;;;;;6184505;23;20009;-94
2022/01/03 03:35:13;;;;;;;25.17;3.70;;;;;;;;;;6184225;23;20030;-94
2022/01/03 03:37:40;;;;;;;27.33;4.60;;;;;;;;;;6184361;23;20014;-94
2022/01/03 03:40:11;;;;;;;23.98;3.08;;;;;;;;;;6184479;23;20005;-94
2022/01/03 03:42:46;;;;;;;18.23;2.67;;;;;;;;;;6184338;23;20065;-93
2022/01/03 03:45:17;;;;;;;23.25;3.47;;;;;;;;;;6184304;23;20009;-94
2022/01/03 03:47:45;;;;;;;20.63;2.97;;;;;;;;;;6213249;23;20089;-93
2022/01/03 03:50:19;;;;;;;25.92;3.33;;;;;;;;;;6214099;23;20009;-93
2022/01/03 03:52:52;;;;;;;20.52;3.15;;;;;;;;;;6214150;23;20041;-92
2022/01/03 03:55:20;;;;;;;24.35;3.28;;;;;;;;;;6214197;23;20012;-93
2022/01/03 03:57:46;;;;;;;25.95;3.38;;;;;;;;;;6213959;23;20008;-92
2022/01/03 04:00:16;;;;;;;17.38;3.58;;;;;;;;;;6213878;23;20016;-92
2022/01/03 04:02:43;;;;;;;28.42;3.90;;;;;;;;;;6213663;23;20009;-93
2022/01/03 04:05:11;;;;;;;20.38;4.03;;;;;;;;;;6213681;23;20005;-93
2022/01/03 04:07:37;;;;;;;26.33;3.95;;;;;;;;;;6213602;23;20032;-93
2022/01/03 04:10:05;;;;;;;21.55;3.20;;;;;;;;;;6213512;23;20020;-93
2022/01/03 04:12:35;;;;;;;25.17;4.07;;;;;;;;;;6213172;23;20013;-93
2022/01/03 04:15:02;;;;;;;24.90;3.53;;;;;;;;;;6213240;23;20039;-93
2022/01/03 04:17:31;;;;;;;26.42;3.55;;;;;;;;;;6213465;23;20032;-94
2022/01/03 04:20:00;;;;;;;16.77;3.38;;;;;;;;;;6213250;23;20027;-95
2022/01/03 04:22:35;;;;;;;19.45;3.15;;;;;;;;;;6213120;23;20032;-94
2022/01/03 04:25:15;;;;;;;31.30;3.28;;;;;;;;;;6211589;23;20043;-94
2022/01/03 04:27:42;;;;;;;24.40;4.15;;;;;;;;;;6213594;23;20060;-93
2022/01/03 04:30:23;;;;;;;30.98;4.10;;;;;;;;;;6210825;23;20013;-94
2022/01/03 04:33:04;;;;;;;30.00;3.17;;;;;;;;;;6211716;23;20017;-92
2022/01/03 04:35:44;;;;;;;25.45;3.40;;;;;;;;;;6191460;23;20063;-92
2022/01/03 04:38:24;;;;;;;30.60;3.60;;;;;;;;;;6213587;23;20009;-93
2022/01/03 04:41:05;;;;;;;20.65;2.85;;;;;;;;;;6213615;23;20009;-92
2022/01/03 04:43:35;;;;;;;15.70;2.58;;;;;;;;;;6213203;23;20021;-92
2022/01/03 04:46:13;;;;;;;24.17;3.45;;;;;;;;;;6213063;23;20013;-92
2022/01/03 04:48:54;;;;;;;24.60;3.13;;;;;;;;;;6213550;23;20012;-94
2022/01/03 04:51:39;;;;;;;28.70;4.75;;;;;;;;;;6213784;23;20029;-94
2022/01/03 04:54:15;;;;;;;33.30;4.40;;;;;;;;;;6213129;23;20032;-92
2022/01/03 04:56:57;;;;;;;25.92;3.20;;;;;;;;;;6213273;23;20420;-91
2022/01/03 04:59:26;;;;;;;21.17;3.28;;;;;;;;;;6212896;23;20012;-94
2022/01/03 05:02:07;;;;;;;21.25;3.42;;;;;;;;;;6211179;23;20069;-94
2022/01/03 05:04:34;;;;;;;44.97;5.65;;;;;;;;;;6212599;23;20009;-93
2022/01/03 05:07:04;;;;;;;24.95;3.67;;;;;;;;;;6213304;23;20028;-93
2022/01/03 05:09:31;;;;;;;34.65;3.78;;;;;;;;;;6212684;23;20020;-93
2022/01/03 05:11:59;;;;;;;33.70;5.53;;;;;;;;;;6212564;23;20009;-93
2022/01/03 05:14:27;;;;;;;25.13;3.38;;;;;;;;;;6212528;23;20008;-93
2022/01/03 05:16:58;;;;;;;23.67;4.10;;;;;;;;;;6188385;23;20065;-94
2022/01/03 05:19:31;;;;;;;23.45;3.95;;;;;;;;;;6212691;23;20017;-92
2022/01/03 05:22:03;;;;;;;29.98;4.18;;;;;;;;;;6212078;23;20061;-93
2022/01/03 05:24:34;;;;;;;44.20;4.57;;;;;;;;;;6212678;23;20055;-93
2022/01/03 05:27:01;;;;;;;29.25;4.07;;;;;;;;;;6212471;23;20097;-93
2022/01/03 05:29:30;;;;;;;31.17;4.07;;;;;;;;;;6212270;23;20012;-93
2022/01/03 05:31:57;;;;;;;34.78;4.38;;;;;;;;;;6212405;23;20015;-93
2022/01/03 05:34:25;;;;;;;22.38;3.20;;;;;;;;;;6212353;23;20029;-94
2022/01/03 05:36:52;;;;;;;31.08;3.97;;;;;;;;;;6212352;23;20048;-94
2022/01/03 05:39:20;;;;;;;28.70;4.80;;;;;;;;;;6187823;23;20065;-93
2022/01/03 05:41:59;;;;;;;30.85;4.07;;;;;;;;;;6212253;23;20009;-93
2022/01/03 05:44:26;;;;;;;27.58;3.78;;;;;;;;;;6212028;23;20065;-93
2022/01/03 05:46:54;;;;;;;27.98;3.65;;;;;;;;;;6212039;23;20012;-94
2022/01/03 05:49:22;;;;;;;33.63;4.13;;;;;;;;;;6212400;23;20044;-93
2022/01/03 05:51:50;;;;;;;22.35;4.07;;;;;;;;;;6187943;23;20020;-94
2022/01/03 05:54:17;;;;;;;36.90;4.90;;;;;;;;;;6212443;23;20082;-92
2022/01/03 05:56:44;;;;;;;27.35;3.35;;;;;;;;;;6212046;23;20040;-93
2022/01/03 05:59:13;;;;;;;27.10;4.03;;;;;;;;;;6211788;23;20021;-93
2022/01/03 06:01:41;;;;;;;21.17;3.95;;;;;;;;;;6212241;23;20040;-94
2022/01/03 06:04:19;;;;;;;32.92;4.32;;;;;;;;;;6211937;23;20008;-93
2022/01/03 06:06:58;;;;;;;29.13;4.00;;;;;;;;;;6211580;23;20025;-93
2022/01/03 06:09:25;;;;;;;31.83;4.97;;;;;;;;;;6211723;23;20025;-93
2022/01/03 06:11:52;;;;;;;32.53;3.45;;;;;;;;;;6210985;23;20040;-93
2022/01/03 06:14:19;;;;;;;32.72;4.45;;;;;;;;;;6210888;23;20035;-93
2022/01/03 06:16:48;;;;;;;31.27;4.25;;;;;;;;;;6211110;23;20036;-93
2022/01/03 06:19:18;;;;;;;33.13;3.88;;;;;;;;;;6212035;23;20009;-95
2022/01/03 06:21:48;;;;;;;38.72;5.10;;;;;;;;;;6211508;23;20016;-93
2022/01/03 06:24:17;;;;;;;31.45;3.95;;;;;;;;;;6211150;23;20025;-95
2022/01/03 06:26:46;;;;;;;29.27;3.55;;;;;;;;;;6211030;23;20009;-93
2022/01/03 06:29:14;;;;;;;33.78;3.80;;;;;;;;;;6211443;23;20016;-93
2022/01/03 06:32:09;;;;;;;29.17;3.92;;;;;;;;;;6211234;23;20068;-94
2022/01/03 06:34:39;;;;;;;28.27;4.30;;;;;;;;;;6212882;23;20019;-94
2022/01/03 06:37:06;;;;;;;20.73;3.38;;;;;;;;;;6211161;23;20031;-93
2022/01/03 06:39:37;;;;;;;29.58;3.42;;;;;;;;;;6211475;23;20289;-94
2022/01/03 06:42:05;;;;;;;34.03;4.53;;;;;;;;;;6211996;23;20029;-95
2022/01/03 06:44:45;;;;;;;27.58;3.97;;;;;;;;;;6211995;23;20029;-94
2022/01/03 06:47:13;;;;;;;23.10;3.95;;;;;;;;;;6211386;23;20012;-93
2022/01/03 06:49:40;;;;;;;25.08;3.72;;;;;;;;;;6211226;23;20032;-93
2022/01/03 06:52:07;;;;;;;31.25;3.67;;;;;;;;;;6211337;23;20040;-93
2022/01/03 07:01:32;;;;;;;31.60;4.40;;;;;;;;;;6212679;23;20024;-93
2022/01/03 07:04:01;;;;;;;29.70;4.22;;;;;;;;;;6211492;23;20069;-93
2022/01/03 07:06:30;;;;;;;28.55;3.42;;;;;;;;;;6212303;23;20005;-93
2022/01/03 07:08:58;;;;;;;38.45;4.25;;;;;;;;;;6211687;23;20039;-94
2022/01/03 07:11:53;;;;;;;36.95;4.93;;;;;;;;;;6211651;23;20063;-93
2022/01/03 07:19:39;;;;;;;39.60;5.15;;;;;;;;;;6212546;23;20005;-95
2022/01/03 07:22:10;;;;;;;26.80;4.45;;;;;;;;;;6211905;23;20024;-93
2022/01/03 07:24:39;;;;;;;33.22;4.70;;;;;;;;;;6211718;23;20049;-95
2022/01/03 07:27:09;;;;;;;27.60;4.00;;;;;;;;;;6211613;23;20150;-94
2022/01/03 07:29:50;;;;;;;32.83;3.83;;;;;;;;;;6211784;23;20032;-94
2022/01/03 07:32:21;;;;;;;29.55;3.92;;;;;;;;;;6211319;23;20009;-93
2022/01/03 07:34:53;;;;;;;29.40;4.30;;;;;;;;;;6211738;23;20032;-95
2022/01/03 07:37:21;;;;;;;32.60;4.75;;;;;;;;;;6211404;23;20009;-95
2022/01/03 07:40:01;;;;;;;29.85;4.35;;;;;;;;;;6210981;23;20019;-94
2022/01/03 07:47:40;;;;;;;30.15;3.72;;;;;;;;;;6292588;22;20083;-94
2022/01/03 07:50:08;;;;;;;42.03;4.85;;;;;;;;;;6306510;22;20060;-95
2022/01/03 07:52:49;;;;;;;38.22;4.32;;;;;;;;;;6281872;22;20079;-93
2022/01/03 07:55:19;;;;;;;28.35;3.92;;;;;;;;;;6304880;22;20055;-94
2022/01/03 07:57:59;;;;;;;37.40;5.13;;;;;;;;;;6303374;22;20099;-93
2022/01/03 08:00:27;;;;;;;37.03;3.80;;;;;;;;;;6304752;22;20011;-93
2022/01/03 08:03:42;;;;;;;34.47;4.25;;;;;;;;;;6281721;22;20023;-94
2022/01/03 08:06:31;;;;;;;42.80;4.57;;;;;;;;;;6283977;22;20081;-93
2022/01/03 08:09:12;;;;;;;32.67;5.13;;;;;;;;;;6304023;22;20095;-93
2022/01/03 08:11:53;;;;;;;28.50;3.88;;;;;;;;;;6281424;22;20008;-94
2022/01/03 08:19:40;;;;;;;38.33;4.20;;;;;;;;;;6260830;22;20003;-93
2022/01/03 08:22:09;;;;;;;33.10;4.50;;;;;;;;;;6279478;22;20038;-94
2022/01/03 08:51:14;;;;;;;35.78;4.60;;;;;;;;;;6264433;22;19995;-94
2022/01/03 08:53:57;;;;;;;37.63;3.92;;;;;;;;;;6299529;22;20031;-95
2022/01/03 08:56:40;;;;;;;37.03;4.38;;;;;;;;;;6279905;22;20008;-95
2022/01/03 08:59:36;;;;;;;42.47;5.47;;;;;;;;;;6158852;23;20037;-94
2022/01/03 09:02:16;;;;;;;39.95;4.60;;;;;;;;;;6157929;23;20037;-94
2022/01/03 09:05:14;;;;;;;39.30;4.38;;;;;;;;;;6175550;23;20041;-93
2022/01/03 09:08:00;;;;;;;43.80;4.85;;;;;;;;;;6175686;23;20014;-93
2022/01/03 09:10:43;;;;;;;39.30;5.05;;;;;;;;;;6178100;23;20061;-94
2022/01/03 09:13:32;;;;;;;37.35;4.80;;;;;;;;;;6153948;23;20054;-93
2022/01/03 09:16:18;;;;;;;30.73;4.38;;;;;;;;;;6158399;23;20098;-94
2022/01/03 09:19:00;;;;;;;41.80;4.68;;;;;;;;;;6155294;23;20037;-93
2022/01/03 10:26:36;;;;;;;30.13;4.20;;;;;;;;;;6267357;22;19947;-93
2022/01/03 10:29:33;;;;;;;27.80;5.40;;;;;;;;;;6303058;22;20024;-94
2022/01/03 10:32:13;;;;;;;22.42;3.97;;;;;;;;;;6326430;22;20023;-94
2022/01/03 10:34:41;;;;;;;23.00;4.00;;;;;;;;;;6301510;22;20038;-94
2022/01/03 10:37:11;;;;;;;33.13;4.57;;;;;;;;;;6299915;22;20031;-94
2022/01/03 10:39:40;;;;;;;25.80;4.00;;;;;;;;;;6298277;22;20024;-94
2022/01/03 10:42:18;;;;;;;22.88;3.72;;;;;;;;;;6304159;22;20063;-94
2022/01/03 11:15:59;;;;;;;34.67;4.75;;;;;;;;;;6295612;22;20004;-94
2022/01/03 11:18:30;;;;;;;29.33;3.67;;;;;;;;;;6277920;22;20011;-93
2022/01/03 11:28:18;;;;;;;31.02;4.25;;;;;;;;;;6306638;22;20036;-93
2022/01/03 11:30:55;;;;;;;25.27;4.70;;;;;;;;;;6281540;22;20007;-93
2022/01/03 11:33:27;;;;;;;25.88;3.22;;;;;;;;;;6279505;22;20288;-94
2022/01/03 11:36:37;;;;;;;24.33;4.13;;;;;;;;;;6284035;22;20012;-95
2022/01/03 11:39:09;;;;;;;19.45;3.85;;;;;;;;;;6280360;22;20055;-93
2022/01/03 11:41:40;;;;;;;27.08;4.45;;;;;;;;;;6280428;22;20055;-94
2022/01/03 11:44:12;;;;;;;26.77;4.45;;;;;;;;;;6280714;22;20059;-92
2022/01/03 11:46:51;;;;;;;20.50;3.88;;;;;;;;;;6305907;22;20030;-93
2022/01/03 11:49:22;;;;;;;21.85;3.60;;;;;;;;;;6281226;22;20067;-94
2022/01/03 11:52:08;;;;;;;21.85;4.20;;;;;;;;;;6280064;22;20018;-94
2022/01/03 11:54:44;;;;;;;22.80;3.75;;;;;;;;;;6264707;22;20017;-95
2022/01/03 11:57:33;;;;;;;21.25;4.05;;;;;;;;;;6242222;23;20020;-94
2022/01/03 12:05:50;;;;;;;23.20;3.60;;;;;;;;;;6242401;23;20076;-93
2022/01/03 12:08:30;;;;;;;20.98;4.28;;;;;;;;;;6267940;22;20024;-92
2022/01/03 12:11:00;;;;;;;23.13;3.20;;;;;;;;;;6267840;22;20009;-93
2022/01/03 12:24:07;;;;;;;24.67;3.40;;;;;;;;;;6244252;23;20043;-94
2022/01/03 12:26:41;;;;;;;20.13;3.22;;;;;;;;;;6242890;23;20043;-92
2022/01/03 12:29:13;;;;;;;24.75;3.15;;;;;;;;;;6244263;23;20015;-93
2022/01/03 12:35:21;;;;;;;22.77;3.50;;;;;;;;;;6244059;23;20015;-94
2022/01/03 12:38:03;;;;;;;24.00;3.92;;;;;;;;;;6240231;23;20019;-93
2022/01/03 12:43:07;;;;;;;24.05;3.90;;;;;;;;;;6268255;22;20389;-93
2022/01/03 12:45:36;;;;;;;25.83;3.70;;;;;;;;;;6304433;22;20055;-93
2022/01/03 13:05:30;;;;;;;24.50;3.28;;;;;;;;;;6305151;22;19998;-93
2022/01/03 13:07:59;;;;;;;24.63;3.25;;;;;;;;;;6304630;22;20007;-92
2022/01/03 13:10:26;;;;;;;24.85;3.45;;;;;;;;;;6304642;22;20008;-92
2022/01/03 13:13:19;;;;;;;19.50;2.83;;;;;;;;;;6303921;22;20020;-93
2022/01/03 13:15:47;;;;;;;30.70;4.28;;;;;;;;;;6304084;22;20029;-92
2022/01/03 13:21:50;;;;;;;22.00;2.90;;;;;;;;;;6304279;22;20007;-93
2022/01/03 13:24:17;;;;;;;27.10;3.88;;;;;;;;;;6302904;22;20045;-92
2022/01/03 16:29:17;;;;;;;26.30;4.00;;;;;;;;;;5762099;22;12704172;-95
2022/01/03 16:31:57;;;;;;;26.35;4.05;;;;;;;;;;6313115;22;20014;-94
2022/01/03 16:41:22;;;;;;;25.10;3.20;;;;;;;;;;6313841;22;20026;-93
2022/01/03 16:44:04;;;;;;;16.35;3.60;;;;;;;;;;6313319;22;20007;-94
2022/01/03 16:46:45;;;;;;;26.85;3.60;;;;;;;;;;6312530;22;20038;-92
2022/01/03 16:49:25;;;;;;;21.92;3.53;;;;;;;;;;6311640;22;20067;-94
2022/01/03 16:55:17;;;;;;;23.05;3.85;;;;;;;;;;6313647;22;20005;-94
2022/01/03 16:57:47;;;;;;;30.15;4.60;;;;;;;;;;6312547;22;20023;-94
2022/01/03 17:00:22;;;;;;;21.38;3.72;;;;;;;;;;6313012;22;20079;-94
2022/01/03 17:02:52;;;;;;;25.35;4.10;;;;;;;;;;6312860;22;20018;-93
2022/01/03 17:05:31;;;;;;;21.42;3.70;;;;;;;;;;6312950;22;20049;-94
2022/01/03 17:07:58;;;;;;;22.63;3.15;;;;;;;;;;6312732;22;20015;-94
2022/01/03 17:10:39;;;;;;;33.20;4.90;;;;;;;;;;6313028;22;20058;-95
2022/01/03 17:13:22;;;;;;;39.53;4.85;;;;;;;;;;6312398;22;20031;-93
2022/01/03 17:16:05;;;;;;;29.90;4.43;;;;;;;;;;6311739;22;20008;-95
2022/01/03 17:18:35;;;;;;;33.58;5.50;;;;;;;;;;6313217;22;20011;-95
2022/01/03 17:21:17;;;;;;;25.30;4.20;;;;;;;;;;6313527;22;20011;-95
2022/01/03 17:23:58;;;;;;;33.15;5.38;;;;;;;;;;6312398;22;20008;-95
2022/01/03 17:26:39;;;;;;;21.40;4.35;;;;;;;;;;6310853;22;20051;-94
2022/01/03 17:29:19;;;;;;;24.02;4.28;;;;;;;;;;6313953;22;20019;-94
2022/01/03 17:31:51;;;;;;;31.65;4.25;;;;;;;;;;6312239;22;20022;-93
2022/01/03 17:34:34;;;;;;;29.33;6.22;;;;;;;;;;6329849;22;20022;-95
2022/01/03 17:37:16;;;;;;;33.38;4.63;;;;;;;;;;6311132;22;20011;-94
2022/01/03 17:39:44;;;;;;;38.35;5.95;;;;;;;;;;6311278;22;20003;-92
2022/01/03 17:42:24;;;;;;;27.42;4.63;;;;;;;;;;6309604;22;20011;-93
2022/01/03 17:45:05;;;;;;;37.58;5.60;;;;;;;;;;6313503;22;20007;-94
2022/01/03 17:47:33;;;;;;;32.40;6.30;;;;;;;;;;6311235;22;20030;-95
2022/01/03 17:50:00;;;;;;;24.92;4.28;;;;;;;;;;6310830;22;20039;-94
2022/01/03 17:52:32;;;;;;;28.10;3.97;;;;;;;;;;6310775;22;20019;-94
2022/01/03 17:55:13;;;;;;;33.83;4.25;;;;;;;;;;6313199;22;20003;-95
2022/01/03 18:04:26;;;;;;;35.47;5.50;;;;;;;;;;6337006;22;20013;-94
2022/01/03 18:06:54;;;;;;;27.63;4.63;;;;;;;;;;6310052;22;20047;-95
2022/01/03 18:09:35;;;;;;;30.27;4.72;;;;;;;;;;6311732;22;20007;-94
2022/01/03 18:16:01;;;;;;;29.98;4.85;;;;;;;;;;6336939;22;20019;-94
2022/01/03 18:18:28;;;;;;;31.48;4.80;;;;;;;;;;6310314;22;20023;-95
2022/01/03 18:21:16;;;;;;;18.98;4.43;;;;;;;;;;6294062;22;20025;-93
2022/01/03 18:49:30;;;;;;;28.20;6.00;;;;;;;;;;6274511;22;20018;-92
2022/01/03 18:52:09;;;;;;;22.48;4.80;;;;;;;;;;6305256;22;20015;-95
2022/01/03 18:58:10;;;;;;;27.92;5.68;;;;;;;;;;6305138;22;20046;-95
2022/01/03 19:01:06;;;;;;;25.02;5.32;;;;;;;;;;6304487;22;20028;-95
2022/01/03 19:03:51;;;;;;;25.27;5.55;;;;;;;;;;6299740;22;20058;-95
2022/01/03 19:06:39;;;;;;;23.58;6.15;;;;;;;;;;6304361;22;20007;-95
2022/01/03 19:09:20;;;;;;;27.10;5.45;;;;;;;;;;6298457;22;20022;-94
2022/01/03 19:12:02;;;;;;;21.55;4.72;;;;;;;;;;6305131;22;20051;-94
2022/01/03 19:14:48;;;;;;;25.92;6.03;;;;;;;;;;6302918;22;20003;-95
2022/01/03 19:17:25;;;;;;;26.60;6.60;;;;;;;;;;6304866;22;20011;-94
2022/01/03 20:52:54;;;;;;;22.17;5.72;;;;;;;;;;6281637;22;20024;-93
2022/01/03 20:55:26;;;;;;;19.88;5.78;;;;;;;;;;6303838;22;20008;-94
2022/01/03 21:03:17;;;;;;;25.77;6.03;;;;;;;;;;6270152;22;20028;-93
2022/01/03 21:05:49;;;;;;;28.67;6.22;;;;;;;;;;6303852;22;20004;-94
2022/01/03 21:16:11;;;;;;;23.40;6.18;;;;;;;;;;6234619;22;20020;-93
2022/01/03 21:18:45;;;;;;;22.42;6.20;;;;;;;;;;6305506;22;20030;-94
2022/01/03 21:21:26;;;;;;;22.63;5.78;;;;;;;;;;6304291;22;20000;-94
2022/01/03 21:33:59;;;;;;;20.77;6.40;;;;;;;;;;6298451;22;20404;-94
2022/01/03 21:36:29;;;;;;;22.65;6.40;;;;;;;;;;6305072;22;20011;-95
2022/01/03 21:38:57;;;;;;;23.85;7.38;;;;;;;;;;6305635;22;20008;-95
2022/01/03 21:41:24;;;;;;;16.13;5.80;;;;;;;;;;6305616;22;20004;-94
2022/01/03 21:43:53;;;;;;;23.00;7.15;;;;;;;;;;6306026;22;20022;-94
2022/01/03 21:46:21;;;;;;;18.58;6.68;;;;;;;;;;6305858;22;20004;-94
2022/01/03 21:48:49;;;;;;;26.17;6.20;;;;;;;;;;6305902;22;20023;-93
2022/01/03 21:51:17;;;;;;;25.38;6.60;;;;;;;;;;6305742;22;20030;-93
2022/01/03 21:53:47;;;;;;;16.67;6.25;;;;;;;;;;6306037;22;20028;-93
2022/01/03 21:56:14;;;;;;;22.73;6.35;;;;;;;;;;6305843;22;20018;-93
2022/01/03 21:58:46;;;;;;;17.17;6.10;;;;;;;;;;6305597;22;20031;-93
2022/01/03 22:01:14;;;;;;;25.13;6.30;;;;;;;;;;6305917;22;20063;-94
2022/01/03 22:03:44;;;;;;;19.80;6.35;;;;;;;;;;6305573;22;20066;-93
2022/01/03 22:06:11;;;;;;;24.55;6.43;;;;;;;;;;6305882;22;20003;-93
2022/01/03 22:08:38;;;;;;;16.50;6.32;;;;;;;;;;6305794;22;20008;-94
2022/01/03 22:11:05;;;;;;;16.20;5.75;;;;;;;;;;6305826;22;20014;-94
2022/01/03 22:13:32;;;;;;;21.08;5.70;;;;;;;;;;6305708;22;20042;-94
2022/01/03 22:16:00;;;;;;;15.65;5.78;;;;;;;;;;6305561;22;20004;-93
2022/01/03 22:18:32;;;;;;;25.20;6.47;;;;;;;;;;6305570;22;20008;-94
2022/01/03 22:21:05;;;;;;;18.75;5.32;;;;;;;;;;6305447;22;20059;-93
2022/01/03 22:23:33;;;;;;;15.75;5.05;;;;;;;;;;6305538;22;20027;-94
2022/01/03 22:26:09;;;;;;;;;;;;;;;;;;6306091;22;20030;-93
2022/01/03 22:28:35;;;;;;;23.40;5.90;;;;;;;;;;6305525;22;19903;-94
2022/01/03 22:31:07;;;;;;;19.70;5.75;;;;;;;;;;6305345;22;20019;-93
2022/01/03 22:33:35;;;;;;;18.70;6.07;;;;;;;;;;6305469;22;20004;-94
2022/01/03 22:42:48;;;;;;;26.00;6.13;;;;;;;;;;6306130;22;19997;-95
2022/01/03 22:45:15;;;;;;;18.67;6.05;;;;;;;;;;6305137;22;20019;-94
2022/01/03 22:47:42;;;;;;;19.90;6.25;;;;;;;;;;6305385;22;20039;-94
2022/01/03 22:50:13;;;;;;;18.90;6.25;;;;;;;;;;6305420;22;20025;-96
2022/01/03 22:52:40;;;;;;;21.50;6.65;;;;;;;;;;6304858;22;20030;-95
2022/01/03 22:55:07;;;;;;;17.88;6.22;;;;;;;;;;6305051;22;20063;-95
2022/01/03 22:57:49;;;;;;;15.48;6.13;;;;;;;;;;6305112;22;20007;-95
2022/01/03 23:00:22;;;;;;;17.83;6.00;;;;;;;;;;6305178;22;20069;-96
2022/01/03 23:02:52;;;;;;;13.60;6.35;;;;;;;;;;6305244;22;20007;-96
2022/01/03 23:05:28;;;;;;;22.93;6.00;;;;;;;;;;6305930;22;20004;-96
2022/01/03 23:08:08;;;;;;;27.73;7.00;;;;;;;;;;6304222;22;20063;-95
2022/01/03 23:10:35;;;;;;;19.55;6.38;;;;;;;;;;6305008;22;20007;-94
2022/01/03 23:13:06;;;;;;;22.58;5.72;;;;;;;;;;6305247;22;20004;-95
2022/01/03 23:15:37;;;;;;;17.80;6.13;;;;;;;;;;6305175;22;20011;-93
2022/01/03 23:18:07;;;;;;;22.73;6.05;;;;;;;;;;6304758;22;20012;-95
2022/01/03 23:20:35;;;;;;;22.92;5.50;;;;;;;;;;6305046;22;20050;-95
2022/01/03 23:23:02;;;;;;;21.95;6.22;;;;;;;;;;6305018;22;20011;-95
2022/01/03 23:25:30;;;;;;;22.70;5.40;;;;;;;;;;6305026;22;20007;-95
2022/01/03 23:28:12;;;;;;;18.42;5.53;;;;;;;;;;6302937;22;20052;-94
2022/01/03 23:30:38;;;;;;;22.77;6.85;;;;;;;;;;6304896;22;20029;-95
2022/01/03 23:33:06;;;;;;;20.05;5.55;;;;;;;;;;6304951;22;20051;-95
2022/01/03 23:35:34;;;;;;;20.83;5.82;;;;;;;;;;6304983;22;20013;-94
2022/01/03 23:38:02;;;;;;;19.75;5.82;;;;;;;;;;6304723;22;20014;-92
2022/01/03 23:40:30;;;;;;;27.60;6.25;;;;;;;;;;6304887;22;20023;-96
2022/01/03 23:42:59;;;;;;;19.55;5.72;;;;;;;;;;6305015;22;20008;-95
2022/01/03 23:45:26;;;;;;;24.92;6.45;;;;;;;;;;6304355;22;20014;-93
2022/01/03 23:47:55;;;;;;;17.50;5.97;;;;;;;;;;6305008;22;20063;-96
2022/01/03 23:50:25;;;;;;;18.48;6.85;;;;;;;;;;6304678;22;20059;-96
2022/01/03 23:52:55;;;;;;;21.33;5.78;;;;;;;;;;6304795;22;20011;-95
2022/01/03 23:55:22;;;;;;;25.73;6.22;;;;;;;;;;6304916;22;20050;-96
2022/01/03 23:57:52;;;;;;;14.52;6.18;;;;;;;;;;6305096;22;20023;-95
